Time;durP1;ratioP1;P1;durP2;ratioP2;P2;SDS_P1;SDS_P2;PMS_P1;PMS_P2;Temp;Humidity;BMP_temperature;BMP_pressure;BME280_temperature;BME280_humidity;BME280_pressure;Samples;Min_cycle;Max_cycle;Signal;HPM_P1;HPM_P2
2023/10/31 00:01:09;;;;;;;18.58;6.93;;;;;;;12.81;62.90;95457.06;5054671;28;20119;-78
2023/10/31 00:03:34;;;;;;;14.32;6.43;;;;;;;12.95;63.03;95465.16;5054276;28;20189;-77
2023/10/31 00:05:59;;;;;;;19.30;7.13;;;;;;;12.45;63.99;95458.41;5072636;28;20033;-77
2023/10/31 00:08:25;;;;;;;17.23;6.63;;;;;;;12.65;63.67;95458.25;5068105;28;20147;-77
2023/10/31 00:10:50;;;;;;;19.52;7.43;;;;;;;12.77;63.40;95464.78;5054210;28;20037;-77
2023/10/31 00:13:16;;;;;;;11.95;5.82;;;;;;;12.83;63.44;95465.53;5053479;28;20106;-77
2023/10/31 00:15:41;;;;;;;17.67;6.57;;;;;;;12.76;63.49;95459.72;5054403;28;20040;-77
2023/10/31 00:18:07;;;;;;;16.58;6.07;;;;;;;12.73;63.37;95460.31;5071477;28;20067;-77
2023/10/31 00:20:32;;;;;;;16.15;6.22;;;;;;;12.62;63.25;95432.19;5054182;28;20098;-77
2023/10/31 00:22:58;;;;;;;18.35;5.93;;;;;;;12.76;63.33;95460.53;5054228;28;20036;-77
2023/10/31 00:25:23;;;;;;;17.50;6.20;;;;;;;12.47;63.47;95424.34;5053758;28;20070;-77
2023/10/31 00:27:49;;;;;;;12.05;5.53;;;;;;;12.66;63.45;95441.22;5072106;28;20106;-78
2023/10/31 00:30:14;;;;;;;21.35;5.80;;;;;;;12.43;63.43;95418.00;5072293;28;20035;-77
2023/10/31 00:32:40;;;;;;;14.30;6.45;;;;;;;12.56;63.38;95433.31;5054211;28;20032;-78
2023/10/31 00:35:05;;;;;;;20.33;6.70;;;;;;;12.54;63.74;95422.16;5053726;28;20047;-77
2023/10/31 00:37:31;;;;;;;13.52;5.72;;;;;;;12.50;63.84;95424.59;5054070;28;20029;-77
2023/10/31 00:39:56;;;;;;;17.77;5.95;;;;;;;12.39;63.60;95412.44;5053739;28;20036;-77
2023/10/31 00:42:22;;;;;;;13.70;5.45;;;;;;;12.58;63.53;95439.16;5072227;28;20112;-77
2023/10/31 00:44:47;;;;;;;14.98;5.35;;;;;;;12.57;63.75;95446.34;5072300;28;20029;-77
2023/10/31 00:47:14;;;;;;;14.93;5.43;;;;;;;12.46;63.87;95447.47;5072358;28;20040;-77
2023/10/31 00:49:39;;;;;;;14.90;6.22;;;;;;;12.46;64.33;95444.81;5054583;28;20078;-77
2023/10/31 00:52:05;;;;;;;11.00;5.78;;;;;;;12.49;64.31;95443.47;5053740;28;20469;-77
2023/10/31 00:54:30;;;;;;;19.95;5.53;;;;;;;12.05;64.62;95387.72;5071858;28;20080;-77
2023/10/31 00:56:56;;;;;;;15.68;6.07;;;;;;;12.38;64.21;95434.78;5053249;28;20044;-77
2023/10/31 00:59:21;;;;;;;15.90;6.22;;;;;;;12.25;64.36;95399.00;5053426;28;20032;-77
2023/10/31 01:01:47;;;;;;;19.58;6.80;;;;;;;12.26;64.25;95410.41;5053321;28;20028;-77
2023/10/31 01:04:12;;;;;;;15.65;6.30;;;;;;;11.25;64.59;95287.00;5054083;28;20098;-75
2023/10/31 01:06:42;;;;;;;23.30;6.82;;;;;;;12.29;65.08;95425.81;5072580;28;20090;-75
2023/10/31 01:09:07;;;;;;;16.00;6.03;;;;;;;12.17;64.77;95406.75;5054393;28;20068;-75
2023/10/31 01:11:33;;;;;;;19.40;6.63;;;;;;;12.18;64.92;95409.16;5054888;28;20142;-75
2023/10/31 01:13:58;;;;;;;17.02;7.05;;;;;;;12.10;65.28;95408.94;5072780;28;20506;-75
2023/10/31 01:16:24;;;;;;;12.95;6.10;;;;;;;11.99;65.35;95381.63;5055101;28;20418;-75
2023/10/31 01:18:49;;;;;;;16.50;6.28;;;;;;;11.95;65.14;95362.00;5054986;28;20513;-75
2023/10/31 01:21:14;;;;;;;17.40;6.70;;;;;;;12.20;65.16;95420.31;5055076;28;20032;-76
2023/10/31 01:23:40;;;;;;;16.63;6.47;;;;;;;12.11;65.86;95419.31;5054473;28;20079;-75
2023/10/31 01:26:05;;;;;;;19.63;7.07;;;;;;;11.85;65.93;95392.09;5072712;28;20474;-76
2023/10/31 01:28:31;;;;;;;22.42;7.80;;;;;;;11.78;66.10;95377.53;5072850;28;20040;-75
2023/10/31 01:30:56;;;;;;;19.13;7.32;;;;;;;11.89;66.26;95387.03;5054092;28;20043;-75
2023/10/31 01:33:21;;;;;;;13.35;7.28;;;;;;;11.85;66.56;95409.91;5071762;28;20111;-75
2023/10/31 01:35:47;;;;;;;22.15;7.40;;;;;;;11.89;66.42;95403.78;5054869;28;20119;-75
2023/10/31 01:38:13;;;;;;;17.90;6.53;;;;;;;11.75;66.25;95362.16;5071941;28;20040;-75
2023/10/31 01:40:38;;;;;;;20.92;7.30;;;;;;;11.88;66.02;95388.91;5054054;28;20130;-75
2023/10/31 01:43:03;;;;;;;18.05;7.22;;;;;;;11.49;66.47;95350.84;5054330;28;20502;-75
2023/10/31 01:45:29;;;;;;;15.75;7.07;;;;;;;11.62;67.01;95398.03;5072311;28;20040;-76
2023/10/31 01:47:55;;;;;;;21.25;7.40;;;;;;;11.62;67.16;95398.03;5054001;28;20028;-75
2023/10/31 01:50:21;;;;;;;19.55;6.93;;;;;;;10.98;66.94;95298.03;5072016;28;20033;-76
2023/10/31 01:52:46;;;;;;;16.05;6.60;;;;;;;11.19;66.87;95318.09;5053850;28;20045;-75
2023/10/31 01:55:12;;;;;;;15.52;6.38;;;;;;;11.78;66.77;95404.09;5065644;28;20063;-75
2023/10/31 01:57:38;;;;;;;17.92;7.40;;;;;;;11.75;66.83;95400.13;5056462;28;20043;-77
2023/10/31 02:00:05;;;;;;;15.90;8.88;;;;;;;11.53;67.11;95381.09;5073647;28;20044;-76
2023/10/31 02:02:34;;;;;;;13.32;5.97;;;;;;;11.75;66.74;95396.69;5074010;28;20143;-76
2023/10/31 02:05:00;;;;;;;15.70;6.35;;;;;;;11.54;66.73;95364.88;5073555;28;20059;-75
2023/10/31 02:07:25;;;;;;;14.82;6.45;;;;;;;11.59;66.58;95380.78;5092327;28;20036;-76
2023/10/31 02:09:51;;;;;;;18.25;7.25;;;;;;;11.67;66.41;95375.97;5092147;28;20537;-75
2023/10/31 02:12:43;;;;;;;17.58;7.30;;;;;;;11.86;66.18;95388.38;5073807;28;20568;-76
2023/10/31 02:15:09;;;;;;;;;;;;;;;11.88;66.22;95393.41;5086687;28;20046;-77
2023/10/31 02:17:34;;;;;;;14.75;6.45;;;;;;;11.78;66.15;95380.19;5071918;28;19916;-77
2023/10/31 02:20:00;;;;;;;11.32;5.85;;;;;;;11.68;66.07;95350.97;5071979;28;20097;-77
2023/10/31 02:22:25;;;;;;;11.48;5.53;;;;;;;11.80;66.03;95376.19;5072269;28;20070;-77
2023/10/31 02:24:50;;;;;;;14.63;5.82;;;;;;;11.71;65.78;95350.44;5090609;28;20042;-77
2023/10/31 02:27:16;;;;;;;17.30;7.28;;;;;;;11.71;66.06;95361.88;5071913;28;20031;-77
2023/10/31 02:29:42;;;;;;;16.48;6.85;;;;;;;11.73;65.95;95380.19;5071771;28;20058;-77
2023/10/31 02:32:07;;;;;;;16.15;6.13;;;;;;;11.53;66.21;95354.53;5071768;28;20081;-77
2023/10/31 02:34:34;;;;;;;16.10;6.22;;;;;;;11.43;66.15;95320.88;5071949;28;20089;-77
2023/10/31 02:36:59;;;;;;;17.45;6.85;;;;;;;11.65;65.80;95346.25;5071579;28;20047;-77
2023/10/31 02:39:25;;;;;;;16.63;7.15;;;;;;;11.81;65.79;95366.34;5089739;28;20035;-77
2023/10/31 02:41:50;;;;;;;16.15;6.68;;;;;;;11.36;66.32;95316.94;5072207;28;20032;-77
2023/10/31 02:44:16;;;;;;;15.68;6.78;;;;;;;11.35;66.10;95316.16;5071427;28;20089;-77
2023/10/31 02:46:41;;;;;;;12.57;7.13;;;;;;;11.71;66.44;95375.16;5071891;28;20043;-77
2023/10/31 02:49:08;;;;;;;20.77;6.85;;;;;;;11.57;66.32;95351.06;5071715;28;20478;-77
2023/10/31 02:51:34;;;;;;;15.60;6.40;;;;;;;11.20;65.89;95298.44;5089617;28;20064;-77
2023/10/31 02:53:59;;;;;;;19.05;6.13;;;;;;;11.30;66.26;95331.28;5090075;28;20086;-77
2023/10/31 02:56:25;;;;;;;18.42;5.95;;;;;;;11.54;66.64;95388.00;5089720;28;20114;-77
2023/10/31 02:58:50;;;;;;;16.70;5.80;;;;;;;11.54;66.32;95372.06;5071664;28;20032;-77
2023/10/31 03:01:17;;;;;;;16.58;6.43;;;;;;;11.36;66.88;95365.53;5071465;28;20071;-77
2023/10/31 03:03:43;;;;;;;15.25;7.47;;;;;;;11.39;67.17;95367.63;5071585;28;20122;-78
2023/10/31 03:06:08;;;;;;;24.42;7.18;;;;;;;11.42;66.90;95368.94;5088557;28;20130;-77
2023/10/31 03:08:34;;;;;;;15.30;6.38;;;;;;;11.17;66.69;95333.47;5071440;28;20032;-77
2023/10/31 03:10:59;;;;;;;18.33;6.05;;;;;;;11.35;66.58;95342.69;5071579;28;20032;-77
2023/10/31 03:13:24;;;;;;;25.45;7.22;;;;;;;11.38;66.41;95349.31;5071551;28;20082;-77
2023/10/31 03:15:50;;;;;;;14.23;7.47;;;;;;;10.99;66.25;95283.66;5071558;28;20387;-77
2023/10/31 03:18:15;;;;;;;22.35;7.10;;;;;;;11.52;66.53;95376.84;5089563;28;20036;-77
2023/10/31 03:20:45;;;;;;;18.63;6.47;;;;;;;11.59;66.27;95388.75;5071146;28;20051;-77
2023/10/31 03:23:10;;;;;;;15.23;7.35;;;;;;;11.51;65.95;95369.97;5089245;28;20028;-77
2023/10/31 03:25:36;;;;;;;20.80;7.25;;;;;;;10.96;66.29;95304.66;5091155;28;20351;-76
2023/10/31 03:28:02;;;;;;;17.30;7.20;;;;;;;11.43;66.62;95368.69;5093956;28;20040;-76
2023/10/31 03:30:27;;;;;;;19.13;8.80;;;;;;;11.25;66.30;95334.78;5094062;28;20041;-76
2023/10/31 03:32:53;;;;;;;17.63;9.68;;;;;;;11.17;66.28;95322.06;5075983;28;20076;-75
2023/10/31 03:35:18;;;;;;;23.40;8.02;;;;;;;11.12;66.79;95333.53;5076380;28;20043;-76
2023/10/31 03:37:43;;;;;;;14.27;8.00;;;;;;;10.86;66.89;95318.75;5076513;28;20189;-76
2023/10/31 03:40:09;;;;;;;20.83;6.82;;;;;;;10.91;67.42;95323.25;5093440;28;20040;-76
2023/10/31 03:42:35;;;;;;;15.75;7.55;;;;;;;11.11;67.38;95350.50;5094769;28;20032;-75
2023/10/31 03:45:00;;;;;;;18.65;7.60;;;;;;;10.95;67.05;95305.72;5076299;28;20150;-76
2023/10/31 03:47:26;;;;;;;18.40;7.68;;;;;;;10.79;67.44;95313.75;5094494;28;20028;-75
2023/10/31 03:49:51;;;;;;;21.75;7.57;;;;;;;10.96;66.91;95347.13;5076269;28;20061;-76
2023/10/31 03:52:17;;;;;;;16.63;8.30;;;;;;;10.94;67.58;95344.72;5094056;28;20055;-75
2023/10/31 03:54:42;;;;;;;23.92;8.07;;;;;;;11.00;67.09;95338.31;5076069;28;20403;-75
2023/10/31 03:57:07;;;;;;;19.23;7.70;;;;;;;11.08;67.10;95374.13;5094833;28;20068;-75
2023/10/31 03:59:33;;;;;;;21.35;8.38;;;;;;;10.97;67.34;95365.44;5076483;28;20520;-75
2023/10/31 04:01:58;;;;;;;28.88;10.63;;;;;;;10.78;67.38;95333.38;5094350;28;20028;-76
2023/10/31 04:04:24;;;;;;;21.23;10.93;;;;;;;10.91;67.47;95357.75;5075564;28;20068;-75
2023/10/31 04:06:49;;;;;;;23.80;10.73;;;;;;;10.73;67.38;95348.50;5075945;28;20414;-75
2023/10/31 04:09:14;;;;;;;31.90;13.05;;;;;;;10.60;67.90;95328.66;5075933;28;20036;-75
2023/10/31 04:11:41;;;;;;;27.30;13.82;;;;;;;10.88;67.89;95363.59;5092734;28;20101;-75
2023/10/31 04:14:06;;;;;;;36.05;13.73;;;;;;;10.88;67.74;95361.75;5093190;28;20032;-75
2023/10/31 04:16:37;;;;;;;31.75;12.57;;;;;;;10.71;67.21;95326.75;5075995;28;20043;-75
2023/10/31 04:19:02;;;;;;;23.45;12.73;;;;;;;10.73;66.84;95322.78;5093640;28;20036;-75
2023/10/31 04:21:28;;;;;;;35.15;14.20;;;;;;;10.50;66.69;95282.81;5094100;28;20066;-76
2023/10/31 04:23:53;;;;;;;24.08;12.60;;;;;;;10.02;66.75;95235.44;5075503;28;20040;-76
2023/10/31 04:26:18;;;;;;;28.92;12.95;;;;;;;10.56;67.47;95301.09;5093311;28;20127;-76
2023/10/31 04:28:44;;;;;;;24.40;12.23;;;;;;;10.31;67.46;95293.19;5075638;28;20064;-75
2023/10/31 04:31:09;;;;;;;25.17;12.05;;;;;;;10.52;68.70;95328.41;5093916;28;20118;-75
2023/10/31 04:33:35;;;;;;;24.60;11.35;;;;;;;9.89;67.73;95214.81;5092335;28;20447;-77
2023/10/31 04:36:02;;;;;;;31.10;11.80;;;;;;;10.23;68.04;95262.72;5090760;28;20035;-77
2023/10/31 04:38:27;;;;;;;29.95;11.25;;;;;;;10.55;68.30;95314.59;5073675;28;20122;-77
2023/10/31 04:40:53;;;;;;;29.58;11.80;;;;;;;9.98;68.00;95223.81;5073986;28;20067;-77
2023/10/31 04:43:18;;;;;;;27.27;11.88;;;;;;;10.62;68.28;95329.16;5092011;28;20410;-77
2023/10/31 04:45:43;;;;;;;25.08;11.40;;;;;;;10.32;68.30;95327.38;5074115;28;20036;-77
2023/10/31 04:48:09;;;;;;;28.17;9.70;;;;;;;10.24;69.18;95335.88;5074019;28;20042;-77
2023/10/31 04:50:34;;;;;;;22.88;9.20;;;;;;;10.25;69.05;95326.88;5092618;28;20046;-77
2023/10/31 04:53:00;;;;;;;25.98;10.18;;;;;;;10.24;68.82;95319.97;5090955;28;20117;-77
2023/10/31 04:55:25;;;;;;;24.35;10.48;;;;;;;10.34;68.84;95358.94;5090206;28;20114;-77
2023/10/31 04:57:51;;;;;;;24.25;9.82;;;;;;;10.42;68.94;95369.00;5091420;28;20040;-77
2023/10/31 05:00:17;;;;;;;27.90;10.05;;;;;;;10.54;69.24;95358.09;5073476;28;20405;-77
2023/10/31 05:02:42;;;;;;;26.67;10.80;;;;;;;10.48;68.93;95351.22;5073477;28;20028;-77
2023/10/31 05:05:08;;;;;;;22.98;10.85;;;;;;;10.48;68.38;95353.88;5090240;28;20032;-77
2023/10/31 05:07:33;;;;;;;31.10;12.50;;;;;;;10.32;68.11;95324.72;5073467;28;20067;-77
2023/10/31 05:09:59;;;;;;;30.58;11.50;;;;;;;10.39;67.59;95325.25;5073414;28;20064;-77
2023/10/31 05:12:25;;;;;;;25.17;10.25;;;;;;;10.61;67.57;95367.38;5073171;28;20028;-77
2023/10/31 05:14:50;;;;;;;22.17;10.95;;;;;;;10.13;69.23;95341.44;5091848;28;20032;-77
2023/10/31 05:17:15;;;;;;;32.33;10.45;;;;;;;9.95;69.23;95309.13;5091956;28;20028;-77
2023/10/31 05:19:41;;;;;;;34.85;11.77;;;;;;;10.43;68.80;95360.00;5091718;28;20040;-77
2023/10/31 05:22:06;;;;;;;28.80;10.57;;;;;;;9.94;68.81;95262.47;5073056;28;20031;-77
2023/10/31 05:24:32;;;;;;;29.00;11.48;;;;;;;10.16;68.93;95319.69;5091145;28;20044;-77
2023/10/31 05:26:57;;;;;;;28.92;10.70;;;;;;;10.15;68.64;95326.03;5056559;28;20055;-77
2023/10/31 05:29:23;;;;;;;29.55;13.15;;;;;;;10.28;68.97;95338.81;5072831;28;20524;-77
2023/10/31 05:31:48;;;;;;;37.00;12.20;;;;;;;10.55;68.94;95362.34;5072317;28;20137;-77
2023/10/31 05:34:14;;;;;;;32.03;12.18;;;;;;;10.64;68.43;95372.16;5072837;28;20028;-77
2023/10/31 05:36:39;;;;;;;27.75;11.70;;;;;;;10.31;68.38;95328.44;5089736;28;20043;-77
2023/10/31 05:39:05;;;;;;;30.65;11.88;;;;;;;10.64;68.16;95381.94;5091193;28;20032;-77
2023/10/31 05:41:34;;;;;;;29.85;13.45;;;;;;;10.51;69.16;95377.22;5089452;28;20146;-77
2023/10/31 05:43:59;;;;;;;31.73;13.98;;;;;;;10.36;68.56;95339.06;5091576;28;20043;-81
2023/10/31 05:46:26;;;;;;;28.48;11.88;;;;;;;10.54;68.54;95345.63;5074318;28;20055;-75
2023/10/31 05:48:52;;;;;;;32.03;12.70;;;;;;;10.75;67.91;95380.88;5071540;28;20110;-75
2023/10/31 05:51:18;;;;;;;33.58;12.93;;;;;;;10.73;67.74;95349.31;5071187;28;20031;-75
2023/10/31 05:53:45;;;;;;;38.53;12.98;;;;;;;10.87;67.36;95376.06;5071466;28;20036;-74
2023/10/31 05:56:15;;;;;;;41.13;13.80;;;;;;;10.86;67.11;95381.63;5072156;28;20056;-75
2023/10/31 05:58:41;;;;;;;34.33;13.23;;;;;;;10.90;66.86;95386.16;5071588;28;20032;-75
2023/10/31 06:01:07;;;;;;;37.55;13.82;;;;;;;10.59;67.21;95376.66;5071507;28;20060;-74
2023/10/31 06:03:33;;;;;;;29.15;13.43;;;;;;;10.37;68.20;95384.91;5071010;28;20051;-74
2023/10/31 06:05:59;;;;;;;43.67;13.93;;;;;;;10.34;67.40;95388.88;5089945;28;20067;-74
2023/10/31 06:08:27;;;;;;;38.47;14.93;;;;;;;10.01;67.20;95328.44;5089939;28;20119;-74
2023/10/31 06:10:53;;;;;;;38.28;14.50;;;;;;;10.46;66.89;95378.00;5090151;28;20390;-74
2023/10/31 06:13:18;;;;;;;38.35;15.38;;;;;;;10.72;66.52;95426.50;5071229;28;20070;-76
2023/10/31 06:15:44;;;;;;;34.60;13.55;;;;;;;10.44;66.01;95383.59;5070783;28;20035;-75
2023/10/31 06:18:10;;;;;;;37.53;14.20;;;;;;;10.47;65.58;95386.75;5090055;28;20032;-74
2023/10/31 06:20:35;;;;;;;35.58;13.48;;;;;;;10.23;66.68;95370.59;5071610;28;20115;-75
2023/10/31 06:23:03;;;;;;;40.33;14.63;;;;;;;10.57;66.83;95402.66;5071320;28;20028;-75
2023/10/31 06:25:29;;;;;;;36.15;13.02;;;;;;;10.54;66.74;95382.75;5055558;28;20024;-75
2023/10/31 06:27:55;;;;;;;37.78;13.43;;;;;;;10.75;66.70;95396.81;5054634;28;20093;-74
2023/10/31 06:30:20;;;;;;;38.17;13.35;;;;;;;10.67;66.64;95386.72;5071845;28;20131;-74
2023/10/31 06:32:46;;;;;;;29.08;12.90;;;;;;;10.61;66.41;95367.38;5071003;28;20036;-75
2023/10/31 06:35:11;;;;;;;28.83;13.20;;;;;;;10.72;66.29;95374.25;5071890;28;20039;-74
2023/10/31 06:37:37;;;;;;;47.50;14.43;;;;;;;11.08;65.98;95408.63;5070075;28;20028;-76
2023/10/31 06:40:04;;;;;;;34.22;14.57;;;;;;;11.16;66.14;95408.06;5076103;28;20036;-75
2023/10/31 06:42:30;;;;;;;37.15;13.93;;;;;;;10.84;65.82;95350.84;5069106;28;20120;-74
2023/10/31 06:44:55;;;;;;;31.55;13.70;;;;;;;11.32;65.98;95408.81;5069371;28;20037;-74
2023/10/31 06:47:21;;;;;;;31.33;14.48;;;;;;;10.82;66.01;95309.75;5068818;28;20037;-75
2023/10/31 06:49:46;;;;;;;35.90;13.93;;;;;;;10.95;66.90;95369.41;5058972;28;20125;-75
2023/10/31 06:52:12;;;;;;;33.45;13.98;;;;;;;10.57;66.51;95270.06;5068157;28;20047;-74
2023/10/31 06:54:37;;;;;;;44.63;14.02;;;;;;;11.40;66.29;95373.72;5071507;28;20059;-74
2023/10/31 06:57:04;;;;;;;33.85;13.13;;;;;;;11.11;65.81;95318.66;5067912;28;20532;-75
2023/10/31 06:59:29;;;;;;;33.13;12.93;;;;;;;11.65;65.90;95389.53;5070791;28;20078;-74
2023/10/31 07:01:55;;;;;;;21.85;11.02;;;;;;;11.45;65.27;95357.75;5074802;28;20098;-75
2023/10/31 07:04:20;;;;;;;27.42;11.27;;;;;;;11.78;64.99;95386.28;5095570;28;20024;-81
2023/10/31 07:06:46;;;;;;;30.42;11.40;;;;;;;11.78;64.60;95359.72;5097006;28;20478;-81
2023/10/31 07:09:11;;;;;;;29.95;12.48;;;;;;;11.86;65.12;95392.88;5094572;28;20414;-81
2023/10/31 07:11:36;;;;;;;22.92;12.77;;;;;;;11.84;64.86;95376.41;5079291;28;20093;-80
2023/10/31 07:14:02;;;;;;;38.45;12.93;;;;;;;11.92;64.61;95371.31;5079035;28;20031;-80
2023/10/31 07:16:29;;;;;;;36.50;12.15;;;;;;;12.00;64.41;95356.63;5095443;28;20030;-80
2023/10/31 07:18:54;;;;;;;31.70;12.82;;;;;;;12.05;64.48;95358.47;5096402;28;20097;-80
2023/10/31 07:21:20;;;;;;;27.38;13.60;;;;;;;11.75;64.12;95291.19;5078069;28;20036;-80
2023/10/31 07:23:45;;;;;;;31.02;13.20;;;;;;;12.21;64.00;95367.91;5077980;28;20028;-80
2023/10/31 07:26:11;;;;;;;28.45;12.15;;;;;;;12.10;63.92;95345.13;5095620;28;20036;-81
2023/10/31 07:28:36;;;;;;;32.72;12.50;;;;;;;11.88;64.54;95332.28;5077215;28;20064;-81
2023/10/31 07:31:02;;;;;;;26.92;12.15;;;;;;;12.39;64.52;95372.53;5097117;28;20202;-80
2023/10/31 07:33:27;;;;;;;24.45;11.63;;;;;;;12.39;64.46;95380.53;5079235;28;20428;-80
2023/10/31 07:35:53;;;;;;;33.90;12.85;;;;;;;12.05;64.46;95334.56;5093141;28;20072;-80
2023/10/31 07:38:18;;;;;;;32.53;11.60;;;;;;;12.12;64.18;95313.75;5089672;28;20032;-81
2023/10/31 07:40:44;;;;;;;25.83;10.50;;;;;;;12.48;64.06;95359.44;5081839;28;20036;-80
2023/10/31 07:43:09;;;;;;;33.30;12.05;;;;;;;12.68;64.09;95377.84;5093488;28;20135;-78
2023/10/31 07:45:35;;;;;;;25.75;11.10;;;;;;;12.70;64.05;95370.38;5077118;28;20043;-78
2023/10/31 07:48:01;;;;;;;23.73;10.65;;;;;;;12.71;63.68;95335.53;5095344;28;20035;-79
2023/10/31 07:50:27;;;;;;;30.80;13.18;;;;;;;12.70;64.07;95325.94;5111763;28;20028;-80
2023/10/31 07:52:53;;;;;;;24.90;11.57;;;;;;;12.78;63.72;95308.56;5074899;28;20123;-79
2023/10/31 07:55:18;;;;;;;30.50;10.95;;;;;;;12.79;64.27;95323.47;5075709;28;20052;-78
2023/10/31 07:57:44;;;;;;;19.92;9.43;;;;;;;12.70;64.69;95306.53;5094495;28;20043;-79
2023/10/31 08:00:11;;;;;;;37.22;10.43;;;;;;;12.77;64.25;95291.00;5076680;28;20063;-80
2023/10/31 08:02:36;;;;;;;19.35;8.57;;;;;;;12.88;64.29;95300.47;5095445;28;20051;-79
2023/10/31 08:05:02;;;;;;;17.35;8.70;;;;;;;13.04;64.45;95311.72;5076308;28;20513;-79
2023/10/31 08:07:30;;;;;;;22.83;9.07;;;;;;;13.19;64.37;95330.22;5076498;28;20042;-79
2023/10/31 08:09:56;;;;;;;25.33;10.13;;;;;;;13.00;64.25;95270.75;5092542;28;20430;-78
2023/10/31 08:12:21;;;;;;;25.85;9.95;;;;;;;13.39;64.29;95319.28;5075639;28;20474;-80
2023/10/31 08:14:47;;;;;;;22.48;9.32;;;;;;;13.33;64.44;95304.44;5073695;28;20039;-74
2023/10/31 08:17:12;;;;;;;20.77;8.70;;;;;;;13.37;64.64;95318.78;5074114;28;20522;-74
2023/10/31 08:19:38;;;;;;;24.80;9.13;;;;;;;13.57;64.56;95316.91;5091305;28;20081;-75
2023/10/31 08:22:03;;;;;;;19.27;9.02;;;;;;;13.71;64.66;95320.44;5084637;28;20028;-74
2023/10/31 08:24:29;;;;;;;22.42;8.52;;;;;;;13.65;64.33;95301.06;5073665;28;20085;-73
2023/10/31 08:26:54;;;;;;;21.63;7.85;;;;;;;13.73;64.29;95297.72;5092525;28;20040;-73
2023/10/31 08:29:19;;;;;;;25.08;7.88;;;;;;;13.76;64.32;95291.03;5107475;28;20036;-73
2023/10/31 08:31:45;;;;;;;14.93;7.53;;;;;;;13.87;64.08;95289.81;5073323;28;20032;-75
2023/10/31 08:34:10;;;;;;;24.42;8.50;;;;;;;13.86;63.48;95267.69;5107242;28;20410;-73
2023/10/31 08:36:36;;;;;;;22.42;9.27;;;;;;;14.02;63.39;95276.22;5072616;28;20528;-74
2023/10/31 08:39:01;;;;;;;19.63;9.02;;;;;;;14.11;63.20;95281.69;5071460;28;20121;-74
2023/10/31 08:41:27;;;;;;;21.98;7.43;;;;;;;14.16;63.00;95270.91;5099308;28;20056;-75
2023/10/31 08:43:53;;;;;;;19.30;7.65;;;;;;;14.00;62.69;95242.94;5073754;28;20035;-74
2023/10/31 08:46:19;;;;;;;22.80;8.00;;;;;;;14.14;62.57;95255.22;5073076;28;20035;-74
2023/10/31 08:48:44;;;;;;;13.50;6.93;;;;;;;14.08;62.38;95218.25;5073422;28;20426;-74
2023/10/31 08:51:10;;;;;;;17.88;7.18;;;;;;;14.32;61.88;95250.91;5072914;28;20059;-73
2023/10/31 08:53:35;;;;;;;16.98;7.28;;;;;;;14.41;61.70;95249.16;5073378;28;20043;-73
2023/10/31 08:56:01;;;;;;;20.58;9.57;;;;;;;14.40;61.97;95239.56;5085910;28;20423;-74
2023/10/31 08:58:28;;;;;;;14.77;7.75;;;;;;;14.57;62.34;95242.44;5059588;28;20094;-73
2023/10/31 09:00:53;;;;;;;24.23;9.07;;;;;;;14.54;62.08;95237.69;5074000;28;20409;-74
2023/10/31 09:03:19;;;;;;;23.45;8.90;;;;;;;14.63;61.99;95235.94;5091838;28;20024;-74
2023/10/31 09:05:44;;;;;;;24.23;8.35;;;;;;;14.77;61.56;95243.13;5091392;28;20478;-74
2023/10/31 09:08:10;;;;;;;20.90;7.47;;;;;;;14.74;61.69;95231.16;5091354;28;20032;-75
2023/10/31 09:10:39;;;;;;;16.42;7.25;;;;;;;14.83;61.35;95218.69;5097870;28;20031;-73
2023/10/31 09:13:05;;;;;;;26.58;8.32;;;;;;;14.81;61.24;95204.06;5090278;28;20478;-76
2023/10/31 09:15:30;;;;;;;24.25;8.40;;;;;;;14.91;61.13;95195.84;5073411;28;20069;-74
2023/10/31 09:17:56;;;;;;;20.27;8.82;;;;;;;14.80;61.12;95168.56;5091652;28;20028;-73
2023/10/31 09:20:21;;;;;;;24.35;9.00;;;;;;;14.91;61.34;95190.50;5089655;28;20028;-74
2023/10/31 09:22:47;;;;;;;31.65;11.30;;;;;;;15.03;61.28;95186.22;5073201;28;20417;-74
2023/10/31 09:25:12;;;;;;;31.92;9.50;;;;;;;14.98;60.94;95172.97;5066294;28;20028;-77
2023/10/31 09:27:40;;;;;;;32.03;10.25;;;;;;;15.25;60.29;95200.72;5079492;28;20036;-79
2023/10/31 09:30:06;;;;;;;21.80;10.75;;;;;;;15.26;59.87;95181.69;5089779;28;20032;-79
2023/10/31 09:32:32;;;;;;;25.50;11.52;;;;;;;15.44;59.67;95202.13;5089281;28;20039;-80
2023/10/31 09:34:58;;;;;;;22.85;10.90;;;;;;;15.30;59.50;95161.31;5092319;28;20039;-79
2023/10/31 09:37:23;;;;;;;29.60;10.85;;;;;;;15.40;59.31;95161.06;5090606;28;20402;-79
2023/10/31 09:39:48;;;;;;;29.92;10.82;;;;;;;15.47;59.52;95160.66;5092451;28;20040;-79
2023/10/31 09:42:14;;;;;;;30.65;10.27;;;;;;;15.50;59.62;95156.56;5091085;28;20059;-79
2023/10/31 09:44:40;;;;;;;20.17;9.25;;;;;;;15.15;58.81;95078.06;5093523;28;20055;-80
2023/10/31 09:47:06;;;;;;;29.23;10.07;;;;;;;15.84;58.49;95159.47;5091707;28;20056;-80
2023/10/31 09:49:31;;;;;;;25.85;10.50;;;;;;;15.85;58.10;95128.97;5083407;28;20413;-79
2023/10/31 09:51:58;;;;;;;31.77;10.65;;;;;;;15.68;57.81;95072.72;5075676;28;20044;-79
2023/10/31 09:54:25;;;;;;;24.38;9.57;;;;;;;16.56;57.24;95100.22;5090749;28;20125;-80
2023/10/31 09:56:51;;;;;;;32.35;10.00;;;;;;;17.64;55.30;95092.03;5096709;28;20050;-80
2023/10/31 09:59:18;;;;;;;23.30;9.57;;;;;;;18.70;51.84;95086.69;5075135;28;20070;-79
2023/10/31 10:01:44;;;;;;;31.05;9.25;;;;;;;19.89;47.91;95092.13;5073787;28;20046;-80
2023/10/31 10:04:11;;;;;;;28.35;9.30;;;;;;;20.85;45.69;95103.25;5071922;28;20039;-80
2023/10/31 10:06:40;;;;;;;22.33;9.30;;;;;;;21.81;42.95;95101.34;5092319;28;20153;-80
2023/10/31 10:09:08;;;;;;;17.60;7.72;;;;;;;22.73;41.61;95110.94;5074672;28;20498;-80
2023/10/31 10:11:34;;;;;;;18.48;8.85;;;;;;;23.42;40.04;95093.88;5074191;28;20058;-80
2023/10/31 10:13:59;;;;;;;23.67;8.95;;;;;;;23.90;38.37;95085.50;5092366;28;20035;-80
2023/10/31 10:16:30;;;;;;;14.27;6.60;;;;;;;23.95;38.06;95058.16;5073560;28;20032;-79
2023/10/31 10:18:56;;;;;;;22.13;6.32;;;;;;;24.20;37.09;95089.94;5091484;28;20067;-79
2023/10/31 10:21:21;;;;;;;18.98;5.22;;;;;;;24.32;36.67;95071.94;5074600;28;20437;-80
2023/10/31 10:23:49;;;;;;;15.23;4.95;;;;;;;24.04;36.57;95045.13;5074126;28;20051;-80
2023/10/31 10:26:14;;;;;;;17.35;4.97;;;;;;;24.24;36.28;95076.47;5075341;28;20036;-80
2023/10/31 10:28:40;;;;;;;16.10;6.18;;;;;;;24.06;36.15;95059.09;5104603;28;20039;-80
2023/10/31 10:31:06;;;;;;;17.05;5.85;;;;;;;23.66;36.83;95056.84;5095615;28;20041;-80
2023/10/31 10:33:34;;;;;;;19.02;5.78;;;;;;;23.66;37.27;95067.66;5112982;28;20028;-75
2023/10/31 10:35:59;;;;;;;15.00;5.90;;;;;;;23.41;37.49;95067.19;5092570;28;20058;-76
2023/10/31 10:38:27;;;;;;;17.00;5.22;;;;;;;23.25;37.34;95063.78;5092366;28;20063;-76
2023/10/31 10:40:55;;;;;;;14.23;4.65;;;;;;;22.96;36.83;95049.66;5092725;28;20038;-76
2023/10/31 10:43:22;;;;;;;15.25;5.13;;;;;;;22.78;37.29;95062.03;5110875;28;20077;-76
2023/10/31 10:45:55;;;;;;;14.85;5.45;;;;;;;22.86;37.32;95041.34;5091570;28;20027;-76
2023/10/31 10:48:22;;;;;;;13.85;4.82;;;;;;;22.72;37.00;95020.16;5109581;28;20098;-76
2023/10/31 10:50:57;;;;;;;20.92;5.75;;;;;;;22.85;37.59;95034.38;5110146;28;20035;-76
2023/10/31 10:53:25;;;;;;;17.30;4.88;;;;;;;22.63;37.36;95014.97;5092083;28;20038;-76
2023/10/31 10:56:13;;;;;;;14.80;4.82;;;;;;;22.44;37.39;95011.44;5110276;28;20049;-76
2023/10/31 10:59:00;;;;;;;15.50;4.20;;;;;;;22.46;36.68;95014.56;5065179;28;20522;-76
2023/10/31 11:01:28;;;;;;;9.68;3.72;;;;;;;22.37;35.94;94990.44;5075418;28;20036;-76
2023/10/31 11:03:55;;;;;;;10.27;4.18;;;;;;;22.27;35.64;94966.69;5089756;28;20028;-76
2023/10/31 11:06:21;;;;;;;11.20;4.13;;;;;;;22.09;35.95;94941.97;5068466;28;20086;-76
2023/10/31 11:08:47;;;;;;;11.18;3.60;;;;;;;22.55;35.68;95010.53;5086930;28;20036;-76
2023/10/31 11:11:16;;;;;;;8.35;3.47;;;;;;;22.55;35.73;95004.34;5075499;28;20035;-76
2023/10/31 11:13:45;;;;;;;14.80;5.35;;;;;;;22.20;35.87;94950.34;5059777;28;20033;-76
2023/10/31 11:16:35;;;;;;;19.75;3.72;;;;;;;22.40;35.55;94964.66;5052642;28;20036;-75